Time;durP1;ratioP1;P1;durP2;ratioP2;P2;SDS_P1;SDS_P2;PMS_P1;PMS_P2;Temp;Humidity;BMP_temperature;BMP_pressure;BME280_temperature;BME280_humidity;BME280_pressure;Samples;Min_cycle;Max_cycle;Signal;HPM_P1;HPM_P2
2023/02/08 00:00:17;;;;;;;27.07;14.73;;;-1.60;99.90;;;;;;4908853;29;20207;-75
2023/02/08 00:02:43;;;;;;;24.20;15.20;;;-1.60;99.90;;;;;;4901738;29;20180;-77
2023/02/08 00:05:08;;;;;;;21.20;12.83;;;-1.60;99.90;;;;;;4902569;29;20826;-76
2023/02/08 00:07:34;;;;;;;25.40;13.50;;;-1.60;99.90;;;;;;4907815;29;20247;-75
2023/02/08 00:09:59;;;;;;;26.87;15.80;;;-1.60;99.90;;;;;;4906429;29;20177;-76
2023/02/08 00:12:27;;;;;;;18.80;14.60;;;-1.70;99.90;;;;;;4914945;29;20266;-77
2023/02/08 00:14:52;;;;;;;22.87;13.27;;;-1.70;99.90;;;;;;4911886;29;20247;-76
2023/02/08 00:17:18;;;;;;;25.00;14.93;;;-1.70;99.90;;;;;;4919750;29;20818;-75
2023/02/08 00:19:43;;;;;;;17.00;14.00;;;-1.80;99.90;;;;;;4908730;29;20192;-77
2023/02/08 00:22:09;;;;;;;27.87;15.23;;;-1.80;99.90;;;;;;4907497;29;20186;-76
2023/02/08 00:24:34;;;;;;;28.93;16.77;;;-1.80;99.90;;;;;;4899703;29;20247;-76
2023/02/08 00:27:00;;;;;;;23.03;14.03;;;-1.80;99.90;;;;;;4904131;29;20545;-76
2023/02/08 00:29:26;;;;;;;25.53;16.50;;;-1.90;99.90;;;;;;4906748;29;20188;-76
2023/02/08 00:31:54;;;;;;;28.00;16.60;;;-1.90;99.90;;;;;;4901334;29;20188;-75
2023/02/08 00:34:20;;;;;;;25.40;16.27;;;-1.90;99.90;;;;;;4906920;29;20224;-75
2023/02/08 00:36:45;;;;;;;26.17;16.57;;;-1.90;99.90;;;;;;4905088;29;20461;-75
2023/02/08 00:39:11;;;;;;;24.00;13.73;;;-1.90;99.90;;;;;;4906356;29;20206;-74
2023/02/08 00:41:36;;;;;;;22.70;13.30;;;-1.90;99.90;;;;;;4899151;29;20253;-74
2023/02/08 00:44:02;;;;;;;33.30;17.40;;;-1.90;99.90;;;;;;4908473;29;20210;-75
2023/02/08 00:46:28;;;;;;;28.03;13.87;;;-2.00;99.90;;;;;;4913037;29;20187;-74
2023/02/08 00:48:53;;;;;;;22.47;16.10;;;-2.00;99.90;;;;;;4901063;29;20183;-75
2023/02/08 00:51:19;;;;;;;25.27;14.67;;;-1.90;99.90;;;;;;4907728;29;20184;-75
2023/02/08 00:53:45;;;;;;;26.17;15.60;;;-1.90;99.90;;;;;;4904751;29;20279;-75
2023/02/08 00:56:12;;;;;;;34.60;19.33;;;-1.90;99.90;;;;;;4904725;29;20187;-74
2023/02/08 00:58:38;;;;;;;28.73;18.10;;;-1.90;99.90;;;;;;4898436;29;20425;-74
2023/02/08 01:01:05;;;;;;;34.20;16.60;;;-1.80;99.90;;;;;;4902188;29;20472;-74
2023/02/08 01:03:33;;;;;;;27.30;16.87;;;-1.80;99.90;;;;;;4906261;29;21105;-76
2023/02/08 01:06:04;;;;;;;30.43;17.20;;;-1.80;99.90;;;;;;4908751;29;20416;-75
2023/02/08 01:08:30;;;;;;;29.13;16.43;;;-1.80;99.90;;;;;;4905162;29;20490;-75
2023/02/08 01:11:14;;;;;;;38.60;19.07;;;-1.80;99.90;;;;;;4899113;29;20549;-76
2023/02/08 01:13:40;;;;;;;31.90;16.67;;;-1.80;99.90;;;;;;4913039;29;20985;-75
2023/02/08 01:16:11;;;;;;;24.83;16.77;;;-1.90;99.90;;;;;;4907810;29;20788;-75
2023/02/08 01:18:38;;;;;;;25.43;15.40;;;-1.80;99.90;;;;;;4906007;29;20427;-78
2023/02/08 01:21:10;;;;;;;31.43;17.47;;;-1.80;99.90;;;;;;4907048;29;20467;-74
2023/02/08 01:23:36;;;;;;;26.67;14.50;;;-1.90;99.90;;;;;;4918601;29;20443;-78
2023/02/08 01:26:02;;;;;;;27.33;17.57;;;-1.80;99.90;;;;;;4918275;29;20525;-78
2023/02/08 01:28:28;;;;;;;25.40;17.93;;;-1.90;99.90;;;;;;4909218;29;20412;-76
2023/02/08 01:30:54;;;;;;;33.10;17.70;;;-1.80;99.90;;;;;;4905821;29;20449;-76
2023/02/08 01:33:19;;;;;;;26.43;16.40;;;-1.80;99.90;;;;;;4901550;29;20199;-76
2023/02/08 01:35:48;;;;;;;36.50;17.50;;;-1.80;99.90;;;;;;4904804;29;20191;-75
2023/02/08 01:38:13;;;;;;;25.07;14.70;;;-1.80;99.90;;;;;;4900654;29;20188;-77
2023/02/08 01:40:39;;;;;;;26.57;16.60;;;-1.80;99.90;;;;;;4903241;29;20472;-74
2023/02/08 01:43:18;;;;;;;25.30;15.87;;;-1.80;99.90;;;;;;4904134;29;20177;-76
2023/02/08 01:45:44;;;;;;;25.70;15.60;;;-1.80;99.90;;;;;;4904967;29;20188;-74
2023/02/08 01:48:16;;;;;;;21.70;16.23;;;-1.80;99.90;;;;;;4903366;29;20421;-75
2023/02/08 01:51:02;;;;;;;22.97;16.30;;;-1.80;99.90;;;;;;4903126;29;20640;-75
2023/02/08 01:53:29;;;;;;;26.57;14.63;;;-1.80;99.90;;;;;;4900286;29;20461;-75
2023/02/08 01:55:58;;;;;;;27.63;15.63;;;-1.80;99.90;;;;;;4903804;29;20467;-75
2023/02/08 01:58:26;;;;;;;27.03;15.90;;;-1.90;99.90;;;;;;4904282;29;20439;-75
2023/02/08 02:00:52;;;;;;;25.57;14.97;;;-1.90;99.90;;;;;;4899955;29;20492;-74
2023/02/08 02:03:21;;;;;;;26.53;15.40;;;-1.90;99.90;;;;;;4911990;29;20435;-75
2023/02/08 02:05:53;;;;;;;24.03;15.80;;;-1.90;99.90;;;;;;4899109;29;20448;-74
2023/02/08 02:08:22;;;;;;;26.00;16.33;;;-1.90;99.90;;;;;;4906724;29;20464;-75
2023/02/08 02:11:04;;;;;;;25.47;14.23;;;-1.90;99.90;;;;;;4901986;29;20431;-74
2023/02/08 02:13:36;;;;;;;19.63;12.80;;;-1.90;99.90;;;;;;4920451;29;21128;-73
2023/02/08 02:16:04;;;;;;;29.77;14.73;;;-1.90;99.90;;;;;;4909925;29;20479;-75
2023/02/08 02:18:34;;;;;;;30.57;15.57;;;-2.00;99.90;;;;;;4903415;29;20421;-74
2023/02/08 02:21:26;;;;;;;23.17;15.30;;;-2.00;99.90;;;;;;4898588;29;20469;-76
2023/02/08 02:24:41;;;;;;;23.30;15.03;;;-2.00;99.90;;;;;;4906469;29;20451;-75
2023/02/08 02:27:31;;;;;;;22.80;14.10;;;-2.00;99.90;;;;;;4860228;29;20486;-75
2023/02/08 02:30:26;;;;;;;25.07;13.10;;;-2.00;99.90;;;;;;4908544;29;20416;-74
2023/02/08 02:33:06;;;;;;;22.47;14.40;;;-2.10;99.90;;;;;;4908345;29;20415;-75
2023/02/08 02:35:58;;;;;;;29.07;13.03;;;-2.10;99.90;;;;;;4906075;29;20933;-74
2023/02/08 02:38:39;;;;;;;17.33;12.30;;;-2.10;99.90;;;;;;4892715;29;20428;-74
2023/02/08 02:44:33;;;;;;;18.30;12.27;;;-2.20;99.90;;;;;;4905711;29;20504;-75
2023/02/08 02:47:18;;;;;;;23.53;15.07;;;-2.20;99.90;;;;;;4907330;29;20516;-75
2023/02/08 02:49:57;;;;;;;21.20;13.20;;;-2.30;99.90;;;;;;4911546;29;20427;-73
2023/02/08 02:52:33;;;;;;;19.70;13.07;;;-2.30;99.90;;;;;;4907329;29;21115;-74
2023/02/08 02:55:14;;;;;;;24.10;14.50;;;-2.30;99.90;;;;;;4908301;29;20456;-75
2023/02/08 02:57:46;;;;;;;17.40;11.80;;;-2.30;99.90;;;;;;4913626;29;20412;-76
2023/02/08 03:00:24;;;;;;;17.80;12.50;;;-2.30;99.90;;;;;;4907088;29;20559;-76
2023/02/08 03:02:59;;;;;;;20.57;11.40;;;-2.30;99.90;;;;;;4909768;29;20420;-75
2023/02/08 03:05:28;;;;;;;20.70;11.70;;;-2.30;99.90;;;;;;4910239;29;20587;-76
2023/02/08 03:08:48;;;;;;;21.40;13.50;;;-2.30;99.90;;;;;;4905525;29;20420;-77
2023/02/08 03:11:26;;;;;;;20.73;11.47;;;-2.40;99.90;;;;;;4868753;29;20454;-76
2023/02/08 03:14:23;;;;;;;26.73;14.03;;;-2.30;99.90;;;;;;4908157;29;20468;-76
2023/02/08 03:17:27;;;;;;;20.83;12.23;;;-2.40;99.90;;;;;;4912633;29;20416;-75
2023/02/08 03:20:23;;;;;;;22.80;12.10;;;-2.40;99.90;;;;;;4888609;29;20424;-75
2023/02/08 03:23:04;;;;;;;13.07;10.67;;;-2.50;99.90;;;;;;4914323;29;20408;-75
2023/02/08 03:26:03;;;;;;;18.07;10.50;;;-2.50;99.90;;;;;;4922357;29;20420;-74
2023/02/08 03:28:58;;;;;;;19.40;11.73;;;-2.50;99.90;;;;;;4901159;29;20471;-75
2023/02/08 03:31:40;;;;;;;15.47;11.07;;;-2.60;99.90;;;;;;4923642;29;20438;-74
2023/02/08 03:34:23;;;;;;;17.27;13.00;;;-2.60;99.90;;;;;;4913218;29;20436;-73
2023/02/08 03:37:03;;;;;;;17.60;9.40;;;-2.70;99.90;;;;;;4909797;29;20464;-77
2023/02/08 03:39:31;;;;;;;15.63;9.57;;;-2.70;99.90;;;;;;4908759;29;20456;-76
2023/02/08 03:42:09;;;;;;;21.80;11.20;;;-2.70;99.90;;;;;;4916894;29;20466;-73
2023/02/08 03:44:42;;;;;;;15.67;11.00;;;-2.70;99.90;;;;;;4921684;29;20435;-75
2023/02/08 03:47:21;;;;;;;13.90;9.40;;;-2.70;99.90;;;;;;4919774;29;20511;-74
2023/02/08 03:49:52;;;;;;;13.67;10.03;;;-2.70;99.90;;;;;;4916328;29;20419;-74
2023/02/08 03:52:21;;;;;;;16.80;9.80;;;-2.70;99.90;;;;;;4918134;29;20878;-76
2023/02/08 03:55:16;;;;;;;22.27;14.07;;;-2.70;99.90;;;;;;4921763;29;20444;-73
2023/02/08 03:57:46;;;;;;;18.13;10.57;;;-2.70;99.90;;;;;;4935863;29;20449;-75
2023/02/08 04:00:25;;;;;;;16.53;10.03;;;-2.70;99.90;;;;;;4921030;29;20452;-75
2023/02/08 04:03:00;;;;;;;18.90;11.47;;;-2.70;99.90;;;;;;4932180;29;20411;-74
2023/02/08 04:05:26;;;;;;;23.17;11.70;;;-2.80;99.90;;;;;;4925306;29;20469;-76
2023/02/08 04:07:52;;;;;;;19.60;10.80;;;-2.80;99.90;;;;;;4915119;29;20447;-76
2023/02/08 04:10:18;;;;;;;19.70;11.63;;;-2.80;99.90;;;;;;4936289;29;20431;-76
2023/02/08 04:12:50;;;;;;;15.47;12.20;;;-2.80;99.90;;;;;;4924791;29;20719;-74
2023/02/08 04:15:16;;;;;;;12.20;10.03;;;-2.80;99.90;;;;;;4929397;23;20592;-68
2023/02/08 04:17:41;;;;;;;18.17;9.73;;;-2.80;99.90;;;;;;4918237;29;20539;-69
2023/02/08 04:20:07;;;;;;;14.77;10.23;;;-2.80;99.90;;;;;;4919691;29;20486;-67
2023/02/08 04:22:33;;;;;;;19.23;10.07;;;-2.80;99.90;;;;;;4915432;29;20549;-68
2023/02/08 04:24:59;;;;;;;16.10;10.27;;;-2.90;99.90;;;;;;4910342;29;20432;-70
2023/02/08 04:27:25;;;;;;;20.00;12.10;;;-2.90;99.90;;;;;;4909064;29;20663;-69
2023/02/08 04:29:50;;;;;;;16.60;9.60;;;-2.90;99.90;;;;;;4909048;29;20504;-68
2023/02/08 04:32:16;;;;;;;18.60;11.57;;;-2.90;99.90;;;;;;4919171;29;20179;-70
2023/02/08 04:34:42;;;;;;;11.20;8.77;;;-2.90;99.90;;;;;;4907304;29;20202;-68
2023/02/08 04:37:08;;;;;;;24.23;9.50;;;-2.90;99.90;;;;;;4910165;29;20188;-69
2023/02/08 04:39:34;;;;;;;30.73;13.00;;;-2.90;99.90;;;;;;4912930;29;20248;-70
2023/02/08 04:41:59;;;;;;;14.07;10.03;;;-2.90;99.90;;;;;;4911231;29;20460;-68
2023/02/08 04:44:26;;;;;;;25.70;12.10;;;-2.90;99.90;;;;;;4907055;29;20208;-68
2023/02/08 04:46:52;;;;;;;17.47;11.17;;;-2.90;99.90;;;;;;4912807;29;20208;-69
2023/02/08 04:49:17;;;;;;;11.63;9.27;;;-2.90;99.90;;;;;;4914357;29;20591;-69
2023/02/08 04:51:43;;;;;;;15.37;10.30;;;-2.90;99.90;;;;;;4904083;29;20802;-68
2023/02/08 04:54:09;;;;;;;17.40;10.17;;;-2.90;99.90;;;;;;4907061;29;20564;-68
2023/02/08 04:56:35;;;;;;;24.97;12.70;;;-3.00;99.90;;;;;;4908444;29;20427;-68
2023/02/08 04:59:01;;;;;;;17.57;9.97;;;-2.90;99.90;;;;;;4905021;29;20207;-68
2023/02/08 05:01:26;;;;;;;19.53;10.33;;;-2.90;99.90;;;;;;4907672;29;20468;-69
2023/02/08 05:03:52;;;;;;;17.60;10.30;;;-2.90;99.90;;;;;;4906401;29;20203;-68
2023/02/08 05:06:17;;;;;;;17.17;10.97;;;-3.00;99.90;;;;;;4905650;29;20220;-70
2023/02/08 05:08:43;;;;;;;18.27;11.30;;;-3.00;99.90;;;;;;4906287;29;20172;-68
2023/02/08 05:11:09;;;;;;;21.17;10.60;;;-3.00;99.90;;;;;;4905925;29;20695;-69
2023/02/08 05:13:34;;;;;;;14.30;9.90;;;-3.00;99.90;;;;;;4909891;29;20214;-67
2023/02/08 05:16:00;;;;;;;19.00;10.80;;;-3.00;99.90;;;;;;4906080;29;20188;-68
2023/02/08 05:18:25;;;;;;;16.70;10.60;;;-3.00;99.90;;;;;;4913102;29;20183;-68
2023/02/08 05:21:00;;;;;;;14.87;11.00;;;-3.00;99.90;;;;;;4909704;29;20211;-68
2023/02/08 05:23:26;;;;;;;22.23;10.90;;;-3.00;99.90;;;;;;4917174;29;20183;-69
2023/02/08 05:25:52;;;;;;;13.00;10.10;;;-3.00;99.90;;;;;;4908678;29;20416;-69
2023/02/08 05:28:18;;;;;;;20.93;12.63;;;-3.00;99.90;;;;;;4901737;29;20456;-68
2023/02/08 05:30:45;;;;;;;19.57;11.03;;;-3.00;99.90;;;;;;4909326;29;20919;-68
2023/02/08 05:33:11;;;;;;;21.33;10.60;;;-3.00;99.90;;;;;;4903364;29;20805;-69
2023/02/08 05:35:37;;;;;;;29.37;13.83;;;-3.10;99.90;;;;;;4908979;29;20444;-68
2023/02/08 05:38:02;;;;;;;22.60;10.10;;;-3.10;99.90;;;;;;4916626;29;20475;-69
2023/02/08 05:40:28;;;;;;;16.87;10.10;;;-3.10;99.90;;;;;;4909139;29;20534;-69
2023/02/08 05:42:54;;;;;;;13.07;9.87;;;-3.10;99.90;;;;;;4908884;29;20210;-68
2023/02/08 05:45:19;;;;;;;19.20;10.30;;;-3.10;99.90;;;;;;4907621;29;20683;-68
2023/02/08 05:47:46;;;;;;;21.90;9.40;;;-3.10;99.90;;;;;;4905162;29;20646;-68
2023/02/08 05:50:12;;;;;;;18.30;10.77;;;-3.10;99.90;;;;;;4902607;29;20176;-68
2023/02/08 05:52:38;;;;;;;17.50;10.40;;;-3.10;99.90;;;;;;4907803;29;20939;-68
2023/02/08 05:55:05;;;;;;;17.83;9.77;;;-3.10;99.90;;;;;;4917010;29;20443;-68
2023/02/08 05:57:30;;;;;;;22.57;11.57;;;-3.10;99.90;;;;;;4903992;29;20180;-68
2023/02/08 05:59:56;;;;;;;16.90;9.83;;;-3.10;99.90;;;;;;4914780;29;20792;-69
2023/02/08 06:02:22;;;;;;;13.77;10.60;;;-3.10;99.90;;;;;;4904239;29;20457;-68
2023/02/08 06:04:47;;;;;;;15.40;10.70;;;-3.10;99.90;;;;;;4914158;29;20224;-68
2023/02/08 06:07:14;;;;;;;23.13;10.97;;;-3.10;99.90;;;;;;4908375;29;20252;-67
2023/02/08 06:09:39;;;;;;;19.40;11.77;;;-3.10;99.90;;;;;;4913120;29;20551;-75
2023/02/08 06:12:06;;;;;;;20.67;11.60;;;-3.10;99.90;;;;;;4914102;29;20487;-71
2023/02/08 06:14:31;;;;;;;22.47;10.33;;;-3.10;99.90;;;;;;4910255;29;20247;-74
2023/02/08 06:16:57;;;;;;;24.07;13.80;;;-3.10;99.90;;;;;;4908834;29;20470;-72
2023/02/08 06:19:23;;;;;;;14.97;11.17;;;-3.10;99.90;;;;;;4905903;29;20180;-69
2023/02/08 06:21:49;;;;;;;19.53;9.13;;;-3.10;99.90;;;;;;4912814;29;20469;-69
2023/02/08 06:24:15;;;;;;;17.87;10.13;;;-3.10;99.90;;;;;;4916713;29;20502;-69
2023/02/08 06:26:42;;;;;;;16.17;11.00;;;-3.10;99.90;;;;;;4908984;29;20176;-69
2023/02/08 06:29:07;;;;;;;17.43;11.00;;;-3.10;99.90;;;;;;4907556;29;20455;-69
2023/02/08 06:31:34;;;;;;;20.10;13.17;;;-3.10;99.90;;;;;;4916002;29;20423;-69
2023/02/08 06:34:00;;;;;;;19.70;11.27;;;-3.10;99.90;;;;;;4906214;29;20247;-70
2023/02/08 06:36:26;;;;;;;21.00;11.80;;;-3.10;99.90;;;;;;4910435;29;20419;-69
2023/02/08 06:38:52;;;;;;;20.33;12.60;;;-3.10;99.90;;;;;;4908365;29;20239;-68
2023/02/08 06:41:17;;;;;;;14.03;10.57;;;-3.10;99.90;;;;;;4914225;29;20207;-69
2023/02/08 06:43:43;;;;;;;22.77;12.60;;;-3.10;99.90;;;;;;4913252;29;20192;-70
2023/02/08 06:46:09;;;;;;;23.57;11.90;;;-3.10;99.90;;;;;;4913784;29;20416;-68
2023/02/08 06:48:35;;;;;;;17.17;11.47;;;-3.10;99.90;;;;;;4919976;29;20207;-69
2023/02/08 06:51:01;;;;;;;18.67;12.57;;;-3.10;99.90;;;;;;4911225;29;20432;-69
2023/02/08 06:53:26;;;;;;;17.87;11.50;;;-3.10;99.90;;;;;;4915413;29;20527;-69
2023/02/08 06:55:52;;;;;;;20.60;11.60;;;-3.00;99.90;;;;;;4914524;29;20428;-69
2023/02/08 06:58:18;;;;;;;18.47;10.37;;;-3.00;99.90;;;;;;4916294;29;20255;-69
2023/02/08 07:00:46;;;;;;;16.37;10.87;;;-3.00;99.90;;;;;;4914334;29;20252;-69
2023/02/08 07:03:14;;;;;;;17.07;12.37;;;-3.00;99.90;;;;;;4913867;29;20254;-69
2023/02/08 07:05:40;;;;;;;22.27;10.73;;;-2.90;99.90;;;;;;4920115;29;20510;-69
2023/02/08 07:08:06;;;;;;;19.23;11.10;;;-2.90;99.90;;;;;;4921013;29;20861;-70
2023/02/08 07:10:32;;;;;;;16.17;11.60;;;-2.10;99.90;;;;;;4913215;29;20486;-68
2023/02/08 07:13:00;;;;;;;21.53;12.20;;;-2.20;99.90;;;;;;4915786;29;20487;-69
2023/02/08 07:15:26;;;;;;;25.70;13.60;;;-2.30;99.90;;;;;;4916030;29;20501;-69
2023/02/08 07:17:51;;;;;;;19.20;10.00;;;-2.40;99.90;;;;;;4914744;29;20864;-69
2023/02/08 07:20:17;;;;;;;24.57;11.93;;;-2.50;99.90;;;;;;4920162;29;20294;-70
2023/02/08 07:22:43;;;;;;;26.63;13.37;;;-2.60;99.90;;;;;;4926891;29;20183;-69
2023/02/08 07:25:09;;;;;;;20.67;12.47;;;-2.50;99.90;;;;;;4924373;29;21260;-69
2023/02/08 07:27:34;;;;;;;13.27;9.50;;;-2.50;99.90;;;;;;4915001;29;20553;-69
2023/02/08 07:30:00;;;;;;;21.37;11.90;;;-2.50;99.90;;;;;;4912795;29;20551;-67
2023/02/08 07:32:26;;;;;;;21.33;12.00;;;-2.50;99.90;;;;;;4906959;29;20191;-68
2023/02/08 07:34:52;;;;;;;22.63;12.80;;;-2.50;99.90;;;;;;4907478;29;20203;-68
2023/02/08 07:37:19;;;;;;;22.77;11.53;;;-2.40;99.90;;;;;;4908170;29;20500;-68
2023/02/08 07:39:44;;;;;;;19.63;12.77;;;-2.30;99.90;;;;;;4909200;29;20511;-68
2023/02/08 07:42:10;;;;;;;19.93;12.30;;;-2.30;99.90;;;;;;4907339;29;20612;-69
2023/02/08 07:44:37;;;;;;;21.83;12.57;;;-2.00;99.90;;;;;;4907429;29;20200;-68
2023/02/08 07:47:04;;;;;;;26.17;12.83;;;-1.80;99.90;;;;;;4910463;29;20429;-68
2023/02/08 07:49:30;;;;;;;25.97;13.10;;;-1.80;99.90;;;;;;4915963;29;20431;-68
2023/02/08 07:51:56;;;;;;;24.67;13.40;;;-1.60;99.90;;;;;;4913290;29;20424;-68
2023/02/08 07:54:21;;;;;;;19.00;12.90;;;-1.50;99.90;;;;;;4912629;29;20953;-69
2023/02/08 07:56:47;;;;;;;23.40;13.53;;;-1.50;99.90;;;;;;4913736;29;20185;-68
2023/02/08 07:59:13;;;;;;;22.27;11.20;;;-1.30;99.90;;;;;;4912453;29;20180;-69
2023/02/08 08:01:39;;;;;;;18.60;11.97;;;-1.10;99.90;;;;;;4915417;29;20691;-70
2023/02/08 08:04:05;;;;;;;27.93;13.40;;;-1.10;99.90;;;;;;4915226;29;20444;-70
2023/02/08 08:06:30;;;;;;;18.83;11.90;;;-1.10;99.90;;;;;;4913247;29;20195;-71
2023/02/08 08:08:56;;;;;;;16.70;12.50;;;-0.90;99.90;;;;;;4907454;29;20176;-67
2023/02/08 08:11:22;;;;;;;19.20;11.53;;;-0.80;99.90;;;;;;4907965;29;20187;-69
2023/02/08 08:13:48;;;;;;;24.23;12.37;;;-0.90;99.90;;;;;;4908506;29;20279;-68
2023/02/08 08:16:15;;;;;;;20.80;13.40;;;-0.60;99.90;;;;;;4906677;29;20473;-68
2023/02/08 08:18:40;;;;;;;25.80;14.53;;;-0.50;99.90;;;;;;4905800;29;20416;-68
2023/02/08 08:21:07;;;;;;;24.37;14.97;;;0.00;99.90;;;;;;4915867;29;20482;-68
2023/02/08 08:23:34;;;;;;;25.87;13.40;;;0.90;99.90;;;;;;4906693;29;20523;-69
2023/02/08 08:26:12;;;;;;;21.60;13.63;;;1.80;99.90;;;;;;4908712;29;20420;-68
2023/02/08 08:28:38;;;;;;;25.73;13.97;;;2.30;99.90;;;;;;4903721;29;20424;-68
2023/02/08 08:31:09;;;;;;;27.90;16.07;;;2.60;99.90;;;;;;4910046;29;20426;-69
2023/02/08 08:33:34;;;;;;;23.30;14.70;;;3.50;99.90;;;;;;4903074;29;20431;-69
2023/02/08 08:36:00;;;;;;;25.57;14.00;;;3.50;99.90;;;;;;4910001;29;20435;-69
2023/02/08 08:38:26;;;;;;;22.77;14.80;;;3.50;99.90;;;;;;4907900;29;20188;-68
2023/02/08 08:40:51;;;;;;;21.20;13.67;;;3.10;99.90;;;;;;4906149;29;20686;-69
2023/02/08 08:43:18;;;;;;;23.07;15.47;;;3.00;99.90;;;;;;4910932;29;20657;-68
2023/02/08 08:45:43;;;;;;;17.67;13.60;;;3.50;99.90;;;;;;4908479;29;20507;-68
2023/02/08 08:48:09;;;;;;;24.10;14.20;;;3.40;99.90;;;;;;4908175;29;20420;-68
2023/02/08 08:50:35;;;;;;;20.67;13.10;;;3.20;99.90;;;;;;4903633;29;20183;-68
2023/02/08 08:53:01;;;;;;;24.13;14.80;;;2.60;99.90;;;;;;4914545;29;20416;-69
2023/02/08 08:55:27;;;;;;;23.87;15.70;;;1.50;99.90;;;;;;4912321;29;20215;-68
2023/02/08 08:57:52;;;;;;;26.07;15.63;;;2.00;99.90;;;;;;4908502;29;20180;-69
2023/02/08 09:00:18;;;;;;;23.90;16.73;;;2.40;99.90;;;;;;4913016;29;20515;-69
2023/02/08 09:02:44;;;;;;;25.70;15.93;;;3.10;99.90;;;;;;4908046;29;20172;-69
2023/02/08 09:05:09;;;;;;;24.67;17.07;;;3.90;99.90;;;;;;4913065;29;20491;-69
2023/02/08 09:07:35;;;;;;;31.03;16.53;;;4.10;99.90;;;;;;4908591;29;20271;-69
2023/02/08 09:10:01;;;;;;;24.43;15.93;;;3.70;99.90;;;;;;4913537;29;20183;-69
2023/02/08 09:12:27;;;;;;;22.07;16.97;;;3.80;99.90;;;;;;4912085;29;20554;-69
2023/02/08 09:14:52;;;;;;;27.40;16.93;;;4.20;99.90;;;;;;4909148;29;20219;-69
2023/02/08 09:17:18;;;;;;;23.60;15.80;;;4.40;99.90;;;;;;4915853;29;20329;-70
2023/02/08 09:19:46;;;;;;;24.60;16.87;;;4.10;99.90;;;;;;4904539;29;20206;-68
2023/02/08 09:22:12;;;;;;;31.80;17.70;;;4.60;99.90;;;;;;4908100;29;20214;-69
2023/02/08 09:24:38;;;;;;;28.40;16.97;;;4.60;99.90;;;;;;4911331;29;20962;-69
2023/02/08 09:27:04;;;;;;;30.03;17.20;;;5.10;99.90;;;;;;4907098;29;20416;-68
2023/02/08 09:29:32;;;;;;;30.37;15.47;;;3.80;99.90;;;;;;4908523;29;20418;-69
2023/02/08 09:31:58;;;;;;;28.23;18.03;;;3.00;99.90;;;;;;4906451;29;20437;-68
2023/02/08 09:34:24;;;;;;;31.13;18.47;;;3.00;99.90;;;;;;4908510;29;20871;-69
2023/02/08 09:36:49;;;;;;;30.07;16.73;;;2.60;99.90;;;;;;4904984;29;20667;-68
2023/02/08 09:39:21;;;;;;;22.73;16.40;;;2.80;99.90;;;;;;4907153;29;20267;-69
2023/02/08 09:42:19;;;;;;;28.40;18.70;;;2.80;99.90;;;;;;4906557;29;20251;-69
2023/02/08 09:45:24;;;;;;;33.30;17.93;;;2.80;99.90;;;;;;4915582;29;20828;-70
2023/02/08 09:48:09;;;;;;;32.87;17.93;;;3.00;99.90;;;;;;4907149;29;20766;-70
2023/02/08 09:50:44;;;;;;;27.60;17.60;;;3.00;99.90;;;;;;4904520;29;20440;-68
2023/02/08 09:53:19;;;;;;;28.00;18.70;;;2.90;99.90;;;;;;4912574;29;20488;-69
2023/02/08 09:55:54;;;;;;;24.90;17.50;;;2.90;99.90;;;;;;4907237;29;20419;-69
2023/02/08 09:58:22;;;;;;;24.77;16.60;;;2.40;99.90;;;;;;4909502;29;20411;-69
2023/02/08 10:00:50;;;;;;;27.93;17.47;;;2.30;99.90;;;;;;4908402;29;20456;-68
2023/02/08 10:03:38;;;;;;;30.90;17.80;;;1.70;99.90;;;;;;4909216;29;20415;-69
2023/02/08 10:06:06;;;;;;;25.07;15.33;;;1.90;99.90;;;;;;4907351;29;20416;-68
2023/02/08 10:08:33;;;;;;;32.90;20.70;;;1.80;99.90;;;;;;4906420;29;20985;-69
2023/02/08 10:11:09;;;;;;;36.57;19.93;;;1.30;99.90;;;;;;4904521;29;20447;-69
2023/02/08 10:13:43;;;;;;;25.70;18.30;;;1.30;99.90;;;;;;4910900;29;20436;-69
2023/02/08 10:16:37;;;;;;;29.23;17.50;;;1.10;99.90;;;;;;4917206;29;20422;-68
2023/02/08 10:19:40;;;;;;;28.87;17.50;;;1.10;99.90;;;;;;4913286;29;20419;-69
2023/02/08 10:22:40;;;;;;;31.57;19.03;;;0.90;99.90;;;;;;4914296;29;20592;-68
2023/02/08 10:25:11;;;;;;;31.70;16.57;;;1.00;99.90;;;;;;4905122;29;20809;-68
2023/02/08 10:27:42;;;;;;;26.10;16.10;;;0.90;99.90;;;;;;4951133;23;20492;-67
2023/02/08 10:30:40;;;;;;;34.90;18.97;;;0.90;99.90;;;;;;4905700;29;20437;-69
2023/02/08 10:33:17;;;;;;;30.50;17.20;;;0.90;99.90;;;;;;4904818;29;20431;-68
2023/02/08 10:35:48;;;;;;;29.50;16.23;;;0.90;99.90;;;;;;4902054;29;20479;-69
2023/02/08 10:38:19;;;;;;;26.17;17.60;;;0.90;99.90;;;;;;4888935;29;20422;-69
2023/02/08 10:40:52;;;;;;;28.30;16.70;;;0.80;99.90;;;;;;4894742;29;20529;-68
2023/02/08 10:43:34;;;;;;;20.77;15.27;;;0.80;99.90;;;;;;4894446;29;20939;-69
2023/02/08 10:46:24;;;;;;;28.63;16.40;;;0.80;99.90;;;;;;4891197;29;20428;-68
2023/02/08 10:49:07;;;;;;;28.70;14.27;;;0.80;99.90;;;;;;4881145;29;20919;-68
2023/02/08 10:51:32;;;;;;;25.67;16.57;;;0.90;99.90;;;;;;4891740;29;20423;-68
2023/02/08 10:53:58;;;;;;;26.93;18.13;;;0.90;99.90;;;;;;4886638;29;20512;-68
2023/02/08 10:56:36;;;;;;;26.63;15.67;;;0.90;99.90;;;;;;4888345;29;20468;-70
2023/02/08 10:59:26;;;;;;;27.63;16.20;;;0.90;99.90;;;;;;4892328;29;20567;-69
2023/02/08 11:01:52;;;;;;;26.60;15.97;;;1.00;99.90;;;;;;4891567;29;20460;-69
2023/02/08 11:04:18;;;;;;;22.23;16.17;;;1.00;99.90;;;;;;4896494;29;20430;-69
2023/02/08 11:06:46;;;;;;;27.67;15.33;;;1.00;99.90;;;;;;4888232;29;20909;-69
2023/02/08 11:09:28;;;;;;;24.90;15.90;;;1.00;99.90;;;;;;4886753;29;20417;-69
2023/02/08 11:11:55;;;;;;;24.10;16.27;;;1.10;99.90;;;;;;4886109;29;20480;-69
2023/02/08 11:14:32;;;;;;;20.03;15.20;;;1.10;99.90;;;;;;4890315;29;20433;-69
2023/02/08 11:16:59;;;;;;;29.53;16.70;;;1.20;99.90;;;;;;4891671;29;20503;-70
2023/02/08 11:19:34;;;;;;;27.37;18.17;;;1.30;99.90;;;;;;4884904;29;20462;-69
2023/02/08 11:22:01;;;;;;;28.27;17.37;;;1.30;99.90;;;;;;4889819;29;20462;-69
2023/02/08 11:24:42;;;;;;;28.20;17.00;;;1.30;99.90;;;;;;4889609;29;20417;-69
2023/02/08 11:27:29;;;;;;;26.07;16.97;;;1.40;99.90;;;;;;4905689;29;20467;-69
2023/02/08 11:30:23;;;;;;;28.00;15.67;;;1.50;99.90;;;;;;4889338;29;20831;-69
2023/02/08 11:33:17;;;;;;;28.20;17.33;;;1.50;99.90;;;;;;4886209;29;20607;-68
2023/02/08 11:36:09;;;;;;;27.03;17.10;;;1.60;99.90;;;;;;4887306;29;20424;-69
2023/02/08 11:38:39;;;;;;;27.43;16.63;;;1.50;99.90;;;;;;4885042;29;20757;-68
2023/02/08 11:41:15;;;;;;;25.73;16.47;;;1.50;99.90;;;;;;4897096;29;20546;-68
2023/02/08 11:43:41;;;;;;;35.70;16.47;;;1.60;99.90;;;;;;4885486;29;20472;-70
2023/02/08 11:46:09;;;;;;;29.47;18.47;;;1.70;99.90;;;;;;4891215;29;20476;-69
2023/02/08 11:48:51;;;;;;;34.17;18.17;;;1.70;99.90;;;;;;4883804;29;20449;-69
2023/02/08 11:51:29;;;;;;;25.03;17.13;;;1.80;99.90;;;;;;4891596;29;20508;-70
2023/02/08 11:53:56;;;;;;;31.63;15.83;;;1.80;99.90;;;;;;4897726;29;20451;-69
2023/02/08 11:56:27;;;;;;;31.63;17.47;;;1.80;99.90;;;;;;4881793;29;20901;-70
2023/02/08 11:59:18;;;;;;;30.17;17.77;;;1.90;99.90;;;;;;4890057;29;20501;-68
2023/02/08 12:01:44;;;;;;;25.90;15.63;;;1.90;99.90;;;;;;4888226;29;20492;-67
2023/02/08 12:04:15;;;;;;;27.03;16.13;;;1.90;99.90;;;;;;4883101;29;20475;-68
2023/02/08 12:07:18;;;;;;;28.97;17.43;;;1.90;99.90;;;;;;4893277;29;20592;-69
2023/02/08 12:09:58;;;;;;;27.30;15.67;;;2.00;99.90;;;;;;4892496;29;20517;-69
2023/02/08 12:12:44;;;;;;;26.70;17.23;;;2.00;99.90;;;;;;4885937;29;20417;-69
2023/02/08 12:15:41;;;;;;;24.93;15.37;;;2.10;99.90;;;;;;4894095;29;20432;-69
2023/02/08 12:18:09;;;;;;;25.13;14.17;;;2.10;99.90;;;;;;4889040;29;20460;-69
2023/02/08 12:20:40;;;;;;;24.73;15.90;;;2.00;99.90;;;;;;4886557;29;20497;-71
2023/02/08 12:23:08;;;;;;;27.73;17.07;;;2.00;99.90;;;;;;4886435;29;20806;-69
2023/02/08 12:25:50;;;;;;;27.67;16.00;;;2.10;99.90;;;;;;4879966;29;20519;-71
2023/02/08 12:28:34;;;;;;;28.73;16.53;;;2.20;99.90;;;;;;4893884;29;20506;-68
2023/02/08 12:31:12;;;;;;;25.60;16.87;;;2.30;99.90;;;;;;4881063;29;20495;-68
2023/02/08 12:34:09;;;;;;;29.57;17.20;;;2.20;99.90;;;;;;4885710;29;20437;-71
2023/02/08 12:40:48;;;;;;;24.50;16.20;;;2.10;99.90;;;;;;4890916;29;20472;-70
2023/02/08 12:43:18;;;;;;;28.90;16.57;;;2.20;99.90;;;;;;4884694;29;21134;-69
2023/02/08 12:45:55;;;;;;;29.67;17.33;;;2.20;99.90;;;;;;4870018;29;20421;-70
2023/02/08 12:48:50;;;;;;;29.93;15.97;;;2.40;99.90;;;;;;4882867;29;20468;-69
2023/02/08 12:51:34;;;;;;;24.20;14.77;;;2.40;99.90;;;;;;4883592;29;20986;-70
2023/02/08 12:54:15;;;;;;;23.10;17.07;;;2.50;99.90;;;;;;4888195;29;20736;-70
2023/02/08 12:56:46;;;;;;;24.37;15.87;;;2.40;99.90;;;;;;4882961;29;20907;-70
2023/02/08 12:59:29;;;;;;;24.93;16.13;;;2.40;99.90;;;;;;4882181;29;20444;-70